Kolmaarden Stroemsfors, Sweden

12:04 PM CEST on July 31, 2016 (GMT +0200)
Råsslavägen | | Change Station

Elev 75 ft 58.66 °N, 16.37 °E | Updated 46 seconds ago

Scattered Clouds
Scattered Clouds
70.2 °F
Feels Like 77 °F
N
2.5
Wind Variable Wind from SW
Gusts 7.5 mph

Today
High -- | Low -- °F
--% Chance of Precip.
Yesterday
High -- | Low -- °F
Precip. -- in
Pressure 29.74 in
Visibility 6.2 miles
Clouds Scattered Clouds 4500 ft
Heat Index 77 °F
Dew Point 45 °F
Humidity 40%
Rainfall 0.00 in
Snow Depth Not available.
4:42 AM 9:18 PM
Waning Crescent, 7% visible
METAR ESSP 310950Z 26016G27KT 230V290 9999 SCT045 21/09 Q1007
Pressure 29.74 in
Visibility 6.2 miles
Clouds Scattered Clouds 4500 ft
Heat Index 77 °F
Dew Point 45 °F
Humidity 40%
Rainfall 0.00 in
Snow Depth Not available.
4:42 AM 9:18 PM
Waning Crescent, 7% visible
METAR ESSP 310950Z 26016G27KT 230V290 9999 SCT045 21/09 Q1007

10-Day Weather Forecast

×

Almanac

Astronomy

Jul. 31, 2016 Rise Set
Actual Time
Civil Twilight
Nautical Twilight
Astronomical Twilight
Moon
Length of Visible Light
Length of Day
Tomorrow will be .
, % of the Moon is Illuminated

Today's Extremes

Country Highs Country Lows

Community

WunderPhotos

Upload Photos

1,928,778 photos uploaded!

WunderBlog® & News

Nearby

Air Quality

  Air Quality AQ Index Pollutant
Not available.

Snow Depth

Station Depth Elevation

Earthquake Activity

City Distance Mag. Time & Date
Minimum magnitude displayed is 2.5.

Coastal Water Temperatures

Place Temperature

Stations

Nearby Weather Stations

Station Location Temp. Windchill Dew Point Humidity Wind Precip. Elev Updated Type